Duckwater, NV (89314)

7:01 PM PDT on September 21, 2014 (GMT -0700)
Ely | Change Station
CLOSE
Current Station
Airport
Location: Ely,
Elevation: 6260 ft
Nearby Weather Stations

Elev 6260 ft 39.30 °N, 114.85 °W | Updated 8 minutes ago

Rain
Rain
53 °F
Feels Like 53 °F
N
5
Wind Variable Wind from ENE

Today
High -- | Low -- °F
--% Chance of Precip.
Yesterday
High -- | Low -- °F
Precip. -- in
6:26 AM 6:38 PM
Waning Crescent, 4% visible
Pressure 30.07 in
Visibility 10.0 miles
Clouds Few 5500 ft
Mostly Cloudy 7000 ft
Mostly Cloudy 8500 ft
Dew Point 48 °F
Humidity 83%
Rainfall 0.34 in
Snow Depth 0 in , 1 in , 0 in
UV 0 out of 12
Pollen 1.10 out of 12
Air Quality Not available.
Flu Activity Not available.
METAR KELY 220153Z AUTO 06004KT 10SM FEW055 BKN070 BKN085 12/09 A3025 RMK AO2 RAE45 SLP183 P0009 T01170089

More Conditions Fewer Conditions

Pressure 30.07 in
Visibility 10.0 miles
Clouds Few 5500 ft
Mostly Cloudy 7000 ft
Mostly Cloudy 8500 ft
Dew Point 48 °F
Humidity 83%
Rainfall 0.34 in
Snow Depth 0 in , 1 in , 0 in
UV 0 out of 12
Pollen 1.10 out of 12
Air Quality Not available.
Flu Activity Not available.
METAR KELY 220153Z AUTO 06004KT 10SM FEW055 BKN070 BKN085 12/09 A3025 RMK AO2 RAE45 SLP183 P0009 T01170089

More Conditions Fewer Conditions

10-Day Weather Forecast

Almanac

Astronomy

Sep. 21, 2014 Rise Set
Actual Time 6:26 AM PDT 6:38 PM PDT
Civil Twilight 5:59 AM PDT 7:04 PM PDT
Nautical Twilight 5:28 AM PDT 7:36 PM PDT
Astronomical Twilight 4:56 AM PDT 8:07 PM PDT
Moon 4:04 AM PDT (9/21) 5:15 PM PDT (9/21)
Length of Visible Light 13h 05m
Length of Day
12h 11m
Tomorrow will be 2m 32s shorter.
Waning Crescent, 4% of the Moon is Illuminated
Today
Waning Crescent
Sep 24
New
Oct 1
First Quarter
Oct 8
Full
Oct 15
Last Quarter

Today's Extremes

State Highs State Lows

Community

WunderPhotos

Upload Photos

1,755,347 photos uploaded!

WunderBlogs® & News

Nearby

Snow Depth

Station Depth Elevation
Green Mountain 0 in 8000 ft
Lamance Creek 1 in 6000 ft
Bear Creek 0 in 7800 ft
Taylor Canyon 1 in 6200 ft
Sheldon 0 in 5860 ft

Earthquake Activity

City Distance Mag. Time & Date
No recent earthquake activity has been reported nearby.
Minimum magnitude displayed is 2.5.

Coastal Water Temperatures

Place Temperature
No Stations Reporting

Nearby Weather Stations